Tiempo atmosférico en la estación meteorológica de Pamplona Aeropuerto, Navarra (459 m.)



Fecha
DESCASC
Temp. máxima en grados centígrados (hora)
DESCASC
Temp. mínima en grados centígrados (hora)
DESCASC
Temp. media en grados centígrados
DESCASC
Racha de viento máxima en m/sg (hora)
DESCASC
Velocidad máxima media en intervalos de 10 minutos(hora)
DESCASC
Precipitaciones diarias en mm
DESCASC
Precipitaciones de 00:00 a 06:00 en mm
DESCASC
Precipitaciones de 06:00 a 12:00 en mm
DESCASC
Precipitaciones de 12:00 a 18:00 en mm
DESCASC
Precipitaciones de 18:00 a 24:00 en mm
DESCASC
22-08-2019 28.7 (16:20) 10.5 (07:10) 19.6 10.83 (15:00) 7.78 (19:20) 0 0 0 0 0
21-08-2019 28.5 (15:40) 11.8 (05:00) 20.2 11.39 (16:40) 8.61 (19:50) 0 0 0 0 0
20-08-2019 24.2 (13:40) 14.2 (07:10) 19.2 13.33 (15:40) 9.17 (15:30) 0.4 0.4 0 0 0
19-08-2019 22.6 (14:30) 15 (03:40) 18.8 10.83 (01:00) 7.5 (00:30) 0 0 0 0 0
18-08-2019 32 (13:50) 16.2 (00:00) 24.1 12.78 (14:00) 10.28 (14:00) 0 0 0 0 0
17-08-2019 36.9 (17:20) 13.8 (00:00) 25.4 9.17 (18:20) 7.22 (18:40) 0 0 0 0 0
16-08-2019 33.9 (16:30) 9.1 (00:00) 21.5 9.17 (23:40) 6.67 (20:30) 0 0 0 0 0
15-08-2019 25.5 (14:40) 14.8 (00:00) 20.2 15 (16:40) 8.33 (17:40) 0 0 0 0 0
14-08-2019 29.9 (16:30) 9.4 (00:00) 19.6 11.67 (15:30) 7.5 (16:40) 0 0 0 0 0
13-08-2019 23.5 (15:30) 12.6 (00:00) 18.1 12.5 (14:00) 8.33 (13:30) 0 0 0 0 0
12-08-2019 23.5 (14:50) 14.1 (00:00) 18.8 15.28 (14:00) 11.39 (14:00) 0 0 0 0 0
11-08-2019 26.1 (15:30) 16 (00:00) 21.1 11.39 (18:10) 8.06 (19:40) 1 0 1 0 0
10-08-2019 28.4 (14:00) 14.1 (00:00) 21.3 11.67 (18:50) 8.61 (19:00) 0 0 0 0 0
09-08-2019 36.9 (15:00) 18 (00:00) 27.5 15.28 (21:50) 9.72 (22:00) 1.5 0 0 0 1.5
08-08-2019 35.4 (17:20) 19.4 (00:00) 27.4 12.5 (13:50) 5.83 (16:00) 0 0 0 0 0
07-08-2019 30.8 (17:50) 18.3 (00:00) 24.5 10.28 (01:40) 7.5 (01:20) 0 0 0 0 0
06-08-2019 34.8 (16:00) 18.1 (00:00) 26.4 12.5 (22:40) 8.89 (23:10) 0 0 0 0 0
05-08-2019 33.6 (15:20) 16.4 (00:00) 25 12.78 (18:50) 9.44 (17:50) 0 0 0 0 0
04-08-2019 33.7 (16:00) 17 (00:00) 25.4 13.33 (18:10) 10 (18:10) 0 0 0 0 0
03-08-2019 34.5 (16:10) 13.1 (00:00) 23.8 11.67 (19:10) 8.33 (19:10) 0 0 0 0 0
02-08-2019 28.2 (16:10) 17.1 (00:00) 22.7 10.83 (13:40) 7.78 (18:40) 0 0 0 0 0
01-08-2019 31.1 (17:10) 14.4 (00:00) 22.8 13.33 (19:20) 10.28 (18:30) 4.5 0 4.5 0 0
31-07-2019 27.5 (14:50) 10 (00:00) 18.8 8.89 (15:10) 6.39 (19:10) 0 0 0 0 0
30-07-2019 23.2 (14:00) 14.5 (00:00) 18.9 12.78 (14:10) 10.56 (14:10) 0 0 0 0 0
29-07-2019 33.4 (16:00) 9.6 (00:00) 21.5 13.89 (17:30) 10.28 (17:20) 0 0 0 0 0
28-07-2019 24.9 (17:10) 12.8 (00:00) 18.8 11.67 (15:10) 7.22 (16:40) 1 1 0 0 0
27-07-2019 18.7 (14:30) 14.5 (00:00) 16.6 10.28 (19:10) 6.39 (16:00) 3.7 0 0.7 3 0
26-07-2019 25.5 (13:50) 16.6 (00:00) 21.1 12.78 (17:30) 8.61 (17:40) 3.1 0.5 1.5 0.3 0.8

Gráficas

Temp. máximas Temp. mínimas Temp. medias Precipitaciones Rachas de viento máximas Velocidades máximas media en intervalos de 10 minutos

Datos horarios

Fecha y hora oficial Temperatura (ºC) Velocidad del viento (km/h) Dirección del viento Racha (km/h) Dirección de racha Precipitación (mm) Presión (hPa) Tendencia (hPa) Humedad (%)
2019-08-24 23:00:00 22.1 12 Noroeste 21 Oeste 0 965.7 1.9 79
2019-08-24 22:00:00 24.5 13 Noroeste 22 Noroeste 0 965.2 1.3 70
2019-08-24 21:00:00 27.7 13 Noroeste 24 Noroeste 0 964.4 0.2 57
2019-08-24 20:00:00 33.3 4 Oeste 15 Norte 0 963.8 -0.7 18
2019-08-24 19:00:00 33.6 0 Calma 15 Sudoeste 0 963.9 -1.2 18
2019-08-24 18:00:00 34 5 Este 21 Nordeste 0 964.2 -1.4 17
2019-08-24 17:00:00 34.9 2 Norte 22 Sur 0 964.5 -1.5 18
2019-08-24 16:00:00 34.6 7 Norte 22 Oeste 0 965.1 -1.5 21
2019-08-24 15:00:00 34.1 10 Sur 26 Sur 0 965.6 -1.4 25
2019-08-24 14:00:00 33.3 12 Sudoeste 26 Sur 0 966 -1.2 27
2019-08-24 13:00:00 31 4 Sudoeste 17 Oeste 0 966.6 -0.8 32
2019-08-24 12:00:00 28.4 3 Este 9 Nordeste 0 967 -- 37
2019-08-24 11:00:00 25.7 3 Sudoeste 9 Sudoeste 0 967.2 0.2 43
2019-08-24 10:00:00 21.1 3 Oeste 8 Oeste 0 967.4 0.5 54
2019-08-24 09:00:00 -- -- -- -- -- -- -- -- --
2019-08-24 08:00:00 13.9 0 Calma 4 Oeste 0 967 0.1 79
2019-08-24 07:00:00 13.5 0 Calma 5 Norte 0 966.9 0.1 78
2019-08-24 06:00:00 14.1 0 Calma 5 Oeste 0 966.9 0.2 76
2019-08-24 05:00:00 14.9 3 Sudoeste 8 Sur 0 966.9 0.2 73
2019-08-24 04:00:00 15.7 0 Calma 8 Sur 0 966.8 0.2 69
2019-08-24 03:00:00 17.2 2 Sudeste 8 Sudeste 0 966.7 0.3 66
2019-08-24 02:00:00 18.4 3 Este 5 Este 0 966.7 0.6 61
2019-08-24 01:00:00 20.3 0 Calma 9 Nordeste 0 966.6 0.9 60
2019-08-24 00:00:00 22.2 3 Nordeste 9 Sudeste 0 966.4 1.5 57
2019-08-23 23:00:00 23.4 7 Sudeste 13 Sudeste 0 966.1 1.5 49
2019-08-23 22:00:00 25.1 11 Oeste 15 Oeste 0 965.7 1 43
2019-08-23 21:00:00 28.5 3 Sudoeste 11 Sudoeste 0 964.9 -0.2 29
2019-08-23 20:00:00 31.7 2 Sur 13 Norte 0 964.6 -0.9 21
2019-08-23 19:00:00 32.6 9 Norte 22 Noroeste 0 964.7 -1.2 20
2019-08-23 18:00:00 33.3 5 Nordeste 17 Sur 0 965.1 -1.6 20
2019-08-23 17:00:00 33.8 6 Oeste 24 Sur 0 965.5 -1.8 22
2019-08-23 16:00:00 33.2 9 Sudoeste 28 Sudoeste 0 965.9 -1.9 26
2019-08-23 15:00:00 32.6 10 Sur 30 Sudoeste 0 966.7 -1.7 27
2019-08-23 14:00:00 31.3 15 Sudoeste 37 Sur 0 967.3 -1.7 30
2019-08-23 13:00:00 28.3 5 Este 13 Nordeste 0 967.8 -1.3 35
2019-08-23 12:00:00 25.5 4 Norte 9 Norte 0 968.4 -0.9 42
2019-08-23 11:00:00 21.3 3 Este 9 Nordeste 0 969 -0.1 52
2019-08-23 10:00:00 17.5 3 Sudeste -- -- -- 969.1 0.6 63
2019-08-23 09:00:00 13.9 0 Calma 8 Oeste 0 969.3 0.7 74
2019-08-23 08:00:00 10.4 2 Sudeste 5 Sur 0 969.1 0.6 87
2019-08-23 07:00:00 9.7 0 Calma 5 Oeste 0 968.5 -0.4 87
2019-08-23 06:00:00 10.4 0 Calma 5 Oeste 0 968.6 -0.2 87
2019-08-23 05:00:00 11.2 0 Calma 5 Sudoeste 0 968.5 -0.4 86
2019-08-23 04:00:00 12.1 4 Sur 8 Sur 0 968.9 -0.1 82
2019-08-23 03:00:00 12.8 0 Calma -- -- 0 968.8 -0.3 80
2019-08-23 02:00:00 13.9 8 Sudeste 9 Sudeste 0 968.9 -0.2 76
2019-08-23 01:00:00 15.5 2 Sur 13 Norte 0 969 0.2 73
2019-08-23 00:00:00 17.1 12 Norte 17 Norte 0 969.1 0.9 70
2019-08-22 23:00:00 18.1 12 Noroeste 21 Noroeste 0 969.1 1.2 68
2019-08-22 22:00:00 19.7 15 Noroeste 26 Noroeste 0 968.8 1.1 63
2019-08-22 21:00:00 21.4 17 Noroeste 32 Norte 0 968.2 0.4 48
2019-08-22 20:00:00 23.5 24 Norte 35 Noroeste 0 967.9 -0.2 47
2019-08-22 19:00:00 25.6 24 Noroeste 35 Norte 0 967.7 -0.9 46
2019-08-22 18:00:00 27.4 26 Noroeste 39 Noroeste 0 967.8 -1.2 40
2019-08-22 17:00:00 27.7 25 Norte 37 Noroeste 0 968.1 -1.1 36
2019-08-22 16:00:00 28.3 24 Noroeste 35 Noroeste 0 968.6 -1 35
2019-08-22 15:00:00 28.3 24 Noroeste 39 Norte 0 969 -0.9 33
2019-08-22 14:00:00 27.8 26 Noroeste 35 Noroeste 0 969.2 -0.9 32
2019-08-22 13:00:00 27.2 24 Noroeste 33 Norte 0 969.6 -0.5 31
2019-08-22 12:00:00 26.3 20 Noroeste 26 Noroeste 0 969.9 -0.4 31
2019-08-22 11:00:00 24 12 Noroeste 18 Noroeste 0 970.1 0.1 40
2019-08-22 10:00:00 19.4 4 Noroeste 9 Oeste 0 970.1 0.7 60
2019-08-22 09:00:00 15.7 0 Calma 8 Sudeste 0 970.3 1.2 74
2019-08-22 08:00:00 11.7 6 Sudeste 8 Sudeste 0 970 1 87
2019-08-22 07:00:00 10.8 0 Calma 5 Este 0 969.4 0.4 89
2019-08-22 06:00:00 11.7 5 Sudeste 9 Sudeste 0 969.1 0 88
2019-08-22 05:00:00 12.5 0 Calma 8 Noroeste 0 969 -0.7 86
2019-08-22 04:00:00 13.4 3 Noroeste 9 Noroeste 0 969 -0.9 85
2019-08-22 03:00:00 14.4 6 Noroeste 11 Noroeste 0 969.1 -0.7 83
2019-08-22 02:00:00 14.9 5 Oeste 18 Noroeste 0 969.7 -0.1 79
2019-08-22 01:00:00 16.6 12 Noroeste 28 Norte 0 969.9 0.7 70
2019-08-22 00:00:00 17.3 15 Norte 32 Norte 0 969.8 1.5 67
2019-08-21 23:00:00 18.1 22 Norte 35 Norte 0 969.8 2.3 67
2019-08-21 22:00:00 19.2 21 Norte 35 Noroeste 0 969.2 1.7 68
2019-08-21 21:00:00 20.7 22 Norte 39 Norte 0 968.3 1.7 63
2019-08-21 20:00:00 23.1 28 Noroeste 41 Norte 0 967.5 0.7 53
2019-08-21 19:00:00 24.3 24 Norte 37 Noroeste 0 967.5 0.3 49
2019-08-21 18:00:00 25.4 22 Norte 39 Noroeste 0 966.6 -1.1 48
2019-08-21 17:00:00 25.8 26 Norte 41 Noroeste 0 966.8 -1.4 48
2019-08-21 16:00:00 26.8 21 Noroeste 32 Norte 0 967.2 -1.6 46
2019-08-21 15:00:00 26.6 7 Norte 17 Norte 0 967.7 -1.8 44
2019-08-21 14:00:00 26.3 6 Noroeste 18 Oeste 0 968.2 -1.6 44
2019-08-21 13:00:00 22.7 3 Sudeste 9 Sudeste 0 968.8 -1.2 53
2019-08-21 12:00:00 20.6 4 Norte 11 Nordeste 0 969.5 -0.7 59
2019-08-21 11:00:00 18.8 3 Nordeste 11 Oeste 0 969.8 -0.1 64
2019-08-21 10:00:00 16.1 3 Nordeste 9 Nordeste 0 970 0.3 76
2019-08-21 09:00:00 14.6 0 Calma 8 Sudeste 0 970.2 0.3 83
2019-08-21 08:00:00 13 0 Calma 4 Nordeste 0 969.9 -0.3 88
2019-08-21 07:00:00 12.2 0 Calma 5 Sudeste 0 969.7 -0.6 89
2019-08-21 06:00:00 12.1 0 Calma 8 Sudeste 0 969.9 -0.7 90
2019-08-21 05:00:00 12 3 Sudeste 8 Sudeste 0 970.2 -0.7 88
2019-08-21 04:00:00 12.5 0 Calma 5 Sur 0 970.3 -0.7 88
2019-08-21 03:00:00 13.7 4 Norte 15 Norte 0 970.6 -0.5 84
2019-08-21 02:00:00 14.7 11 Noroeste 18 Noroeste 0 970.9 -0.1 82
2019-08-21 01:00:00 15.1 13 Noroeste 21 Noroeste 0 971 0.5 81
2019-08-21 00:00:00 15.5 15 Noroeste 26 Noroeste 0 971.1 0.7 80
2019-08-20 23:00:00 15.9 18 Noroeste 28 Norte 0 971 0.9 79
2019-08-20 22:00:00 16.3 19 Noroeste 30 Noroeste 0 970.5 0.3 77
2019-08-20 21:00:00 17.5 18 Noroeste 35 Nordeste 0 970.4 0.4 71
2019-08-20 20:00:00 18.9 19 Norte 42 Nordeste 0 970.1 0.1 61
2019-08-20 19:00:00 19.9 24 Norte 41 Norte 0 970.2 0.3 56
2019-08-20 18:00:00 20.2 20 Norte 37 Norte 0 970 -0.2 55
2019-08-20 17:00:00 21.3 26 Norte 41 Nordeste 0 970 0.6 54
2019-08-20 16:00:00 21.9 27 Norte 48 Noroeste 0 969.9 0.1 52
2019-08-20 15:00:00 22.3 20 Norte 45 Norte 0 970.2 0.3 47
2019-08-20 14:00:00 23.3 24 Norte 42 Nordeste 0 969.4 -0.3 47
2019-08-20 13:00:00 22.1 24 Nordeste 39 Nordeste 0 969.8 0.4 47
2019-08-20 12:00:00 20.4 26 Norte 45 Norte 0 969.9 0.7 53
2019-08-20 11:00:00 18.5 24 Norte 39 Nordeste 0 969.7 1.8 64
2019-08-20 10:00:00 16.2 15 Norte 26 Nordeste 0 969.4 1.8 77
2019-08-20 09:00:00 14.7 18 Norte 30 Noroeste 0 969.2 2.3 84
2019-08-20 08:00:00 14.4 13 Noroeste 26 Norte 0 967.9 1.2 87
2019-08-20 07:00:00 14.3 18 Noroeste -- -- -- 967.6 0.7 90
2019-08-20 06:00:00 14.6 17 Noroeste 26 Norte 0 966.9 0.1 88
2019-08-20 05:00:00 14.4 17 Noroeste 30 Norte 0.4 966.7 -0.6 91
2019-08-20 04:00:00 15.7 15 Noroeste 24 Noroeste 0 966.9 -0.7 78
2019-08-20 03:00:00 15.8 19 Noroeste 35 Norte 0 966.8 -0.8 77
2019-08-20 02:00:00 16 21 Norte 33 Noroeste 0 967.3 0 77
2019-08-20 01:00:00 16.4 19 Noroeste 28 Norte 0 967.6 0.1 76
2019-08-20 00:00:00 16.6 13 Noroeste 24 Norte 0 967.6 0.9 74
2019-08-19 23:00:00 16.8 13 Norte 28 Norte 0 967.3 0.5 74
2019-08-19 22:00:00 17.1 20 Noroeste 30 Noroeste 0 967.5 1.2 72
2019-08-19 21:00:00 17.5 16 Noroeste 28 Norte 0 966.7 0.2 70
2019-08-19 20:00:00 18.3 18 Noroeste 32 Noroeste 0 966.8 0.4 64
2019-08-19 19:00:00 19.5 18 Noroeste 28 Noroeste 0 966.3 -0.4 59
2019-08-19 18:00:00 19.4 21 Noroeste 33 Noroeste 0 966.5 -0.3 58
2019-08-19 17:00:00 20.6 20 Noroeste 33 Norte 0 966.4 -0.1 52
2019-08-19 16:00:00 19.6 27 Noroeste 35 Noroeste 0 966.7 0.4 52
2019-08-19 15:00:00 21.4 26 Noroeste 35 Noroeste 0 966.8 0.3 48
2019-08-19 14:00:00 21.3 25 Noroeste 33 Noroeste 0 966.5 0.3 49
2019-08-19 13:00:00 20.4 20 Norte 35 Noroeste 0 966.3 0.2 52
2019-08-19 12:00:00 21.2 22 Noroeste 32 Noroeste 0 966.5 0.4 50
2019-08-19 11:00:00 19.4 20 Noroeste 30 Noroeste 0 966.2 -0.1 56
2019-08-19 10:00:00 18.4 14 Norte 28 Noroeste 0 966.1 -0.1 60
2019-08-19 09:00:00 17.3 15 Noroeste 21 Norte 0 966.1 -0.1 64
2019-08-19 08:00:00 15.7 15 Noroeste 22 Noroeste 0 966.3 0.4 72
2019-08-19 07:00:00 15.2 16 Norte 32 Norte 0 966.2 0.2 76
2019-08-19 06:00:00 15.5 21 Noroeste 37 Norte 0 966.2 -0.1 76
2019-08-19 05:00:00 15.7 22 Norte 32 Norte 0 965.9 -0.8 78
2019-08-19 04:00:00 15.3 13 Norte 24 Norte 0 966 -0.3 81
2019-08-19 03:00:00 15.4 14 Norte 30 Norte 0 966.3 0.6 81
2019-08-19 02:00:00 15.9 18 Norte -- -- -- 966.7 1.2 79
2019-08-19 01:00:00 16.7 24 Norte 39 Norte 0 966.3 2.2 78
2019-08-19 00:00:00 17 25 Norte 45 Norte 0 965.7 2.3 79
2019-08-18 23:00:00 17.6 30 Norte 45 Norte 0 965.5 2.8 77
2019-08-18 22:00:00 18.4 28 Norte 39 Norte 0 964.1 1.6 81
2019-08-18 21:00:00 19.7 25 Norte 45 Norte 0 963.4 1.6 78
2019-08-18 20:00:00 21.5 23 Norte 41 Norte 0 962.7 1.7 69
2019-08-18 19:00:00 21.4 29 Norte 46 Norte 0 962.5 1.7 72
2019-08-18 18:00:00 23.6 30 Norte 46 Norte 0 961.8 1.2 65
2019-08-18 17:00:00 25.1 31 Norte 42 Norte 0 961 0.8 61
2019-08-18 16:00:00 25.4 28 Norte 42 Norte 0 960.8 0.3 61
2019-08-18 15:00:00 27.2 32 Norte 46 Noroeste 0 960.6 -0.1 57
2019-08-18 14:00:00 31.6 37 Norte 46 Norte 0 960.2 -0.7 43
2019-08-18 13:00:00 30 10 Norte 26 Norte 0 960.5 -0.6 46
2019-08-18 12:00:00 29.9 6 Sudeste 15 Sudoeste 0 960.7 0 46
2019-08-18 11:00:00 27.3 5 Sur 15 Sudeste 0 960.9 0.9 54
2019-08-18 10:00:00 24.4 3 Este 9 Nordeste 0 961.1 1.8 63
2019-08-18 09:00:00 21.2 7 Sudeste 9 Sudeste 0 960.7 1.5 74
2019-08-18 08:00:00 17.5 5 Este 8 Sudeste 0 960 0.5 87
2019-08-18 07:00:00 16.6 5 Sur 8 Sur 0 959.3 -0.3 87
2019-08-18 06:00:00 17 0 Calma 9 Sudeste 0 959.2 -0.4 87
2019-08-18 05:00:00 17.6 4 Sudeste 8 Sudeste 0 959.5 -0.5 85
2019-08-18 04:00:00 18.3 5 Sur 8 Sur 0 959.6 -0.5 83
2019-08-18 03:00:00 19.3 2 Nordeste 8 Oeste 0 959.6 -0.9 80
2019-08-18 02:00:00 19.9 2 Oeste 9 Oeste 0 960 -0.6 78
2019-08-18 01:00:00 20.8 2 Sudoeste 9 Oeste 0 960.1 -0.1 75
2019-08-18 00:00:00 22 7 Oeste 15 Noroeste 0 960.5 0.8 71
2019-08-17 23:00:00 23.3 10 Noroeste 21 Noroeste 0 960.6 1 68
2019-08-17 22:00:00 24.9 7 Noroeste 11 Noroeste 0 960.2 0.4 63
2019-08-17 21:00:00 27.4 9 Noroeste 21 Noroeste 0 959.7 -0.1 55
2019-08-17 20:00:00 30.2 16 Noroeste 24 Noroeste 0 959.6 -0.6 47
2019-08-17 19:00:00 31.1 18 Norte 33 Noroeste 0 959.8 -1 44
2019-08-17 18:00:00 34 22 Noroeste 30 Noroeste 0 959.8 -1.9 35
2019-08-17 17:00:00 36.2 10 Noroeste 22 Oeste 0 960.2 -2.1 23
2019-08-17 16:00:00 35.6 9 Oeste 26 Sur 0 960.8 -2.5 26
2019-08-17 15:00:00 34.5 9 Sur 28 Sudoeste 0 961.7 -2.3 28
2019-08-17 14:00:00 33.6 18 Sur 30 Sur 0 962.3 -1.9 34
2019-08-17 13:00:00 31.2 11 Noroeste 26 Noroeste 0 963.3 -1 41
2019-08-17 12:00:00 29.1 8 Noroeste 21 Noroeste 0 964 -0.4 43
2019-08-17 11:00:00 25.5 7 Norte 13 Norte 0 964.2 0 52
2019-08-17 10:00:00 21.4 4 Norte 9 Norte 0 964.3 0.1 56
2019-08-17 09:00:00 18.5 4 Oeste 8 Noroeste 0 964.4 0.3 66
2019-08-17 08:00:00 14.3 0 Calma 5 Noroeste 0 964.2 -0.3 75
2019-08-17 07:00:00 14 0 Calma 9 Oeste 0 964.2 -0.4 75
2019-08-17 06:00:00 15.3 0 Calma 5 Sur 0 964.1 -0.8 77
2019-08-17 05:00:00 15.5 2 Noroeste 8 Oeste 0 964.5 -0.7 71
2019-08-17 04:00:00 17 4 Nordeste 9 Norte 0 964.6 -0.5 71
2019-08-17 03:00:00 17.9 4 Sur 5 Sudeste 0 964.9 0.1 63
2019-08-17 02:00:00 18.8 4 Sudoeste 15 Noroeste 0 965.2 0.8 60
2019-08-17 01:00:00 20.6 13 Noroeste 21 Noroeste 0 965.1 1 54
2019-08-17 00:00:00 21.4 18 Norte 33 Norte 0 964.8 1.8 62
2019-08-16 23:00:00 22.1 10 Noroeste 30 Noroeste 0 964.4 2.1 72
2019-08-16 22:00:00 23.7 18 Noroeste 32 Noroeste 0 964.1 1.9 67
2019-08-16 21:00:00 26.4 20 Noroeste 32 Norte 0 963 0.5 53
2019-08-16 20:00:00 30.3 21 Noroeste 30 Norte 0 962.3 -0.7 39
2019-08-16 19:00:00 32.5 19 Norte 32 Norte 0 962.2 -1.5 29
2019-08-16 18:00:00 32.5 12 Nordeste 22 Nordeste 0 962.5 -2.1 26
2019-08-16 17:00:00 32.7 9 Este 21 Norte 0 963 -2.4 25
2019-08-16 16:00:00 33.2 5 Noroeste 18 Oeste 0 963.7 -2.6 23
2019-08-16 15:00:00 31.4 7 Oeste 15 Norte 0 964.6 -2.2 24
2019-08-16 14:00:00 29.2 7 Sudeste 15 Sudoeste 0 965.4 -1.8 28
2019-08-16 13:00:00 26.9 8 Noroeste 15 Noroeste 0 966.3 -1.3 36
2019-08-16 12:00:00 22.7 4 Nordeste 11 Noroeste 0 966.8 -0.9 46
2019-08-16 11:00:00 19.6 3 Norte 11 Oeste 0 967.2 -0.3 56
2019-08-16 10:00:00 16.5 2 Este 11 Nordeste 0 967.6 0.2 68
2019-08-16 09:00:00 13.8 0 Calma 5 Este 0 967.7 0.5 77
2019-08-16 08:00:00 10.8 0 Calma -- -- 0 967.5 0 90
2019-08-16 07:00:00 9.2 8 Sudeste 11 Sudeste 0 967.4 -0.8 92
2019-08-16 06:00:00 10.5 5 Nordeste 8 Este 0 967.2 -1.2 93
2019-08-16 05:00:00 10.5 0 Calma 11 Sudeste 0 967.5 -1.1 90
2019-08-16 04:00:00 11.3 6 Sudeste 9 Sudeste 0 968.2 -0.7 87
2019-08-16 03:00:00 12 4 Sudeste 8 Oeste 0 968.4 -1.2 85
2019-08-16 02:00:00 13.2 0 Calma 18 Noroeste 0 968.6 -1.2 84
2019-08-16 01:00:00 14.3 13 Noroeste 26 Noroeste 0 968.9 -0.4 81
2019-08-16 00:00:00 14.9 9 Noroeste 24 Norte 0 969.6 0.6 78
2019-08-15 23:00:00 15.7 17 Norte 26 Noroeste 0 969.8 0.7 75
2019-08-15 22:00:00 16.7 17 Norte 26 Norte 0 969.3 0.3 70
2019-08-15 21:00:00 18.1 21 Norte 33 Norte 0 969 0.1 63
2019-08-15 20:00:00 19.6 23 Norte 35 Norte 0 969.1 0.3 60
2019-08-15 19:00:00 21 27 Norte 45 Norte 0 969 0 53
2019-08-15 18:00:00 22.2 30 Norte 42 Norte 0 968.9 -0.2 50
2019-08-15 17:00:00 23.2 26 Norte 54 Nordeste 0 968.8 -0.8 48
2019-08-15 16:00:00 23.6 26 Nordeste 42 Nordeste 0 969 -0.9 47
2019-08-15 15:00:00 23.7 26 Norte 41 Norte 0 969.1 -1.1 49
2019-08-15 14:00:00 24 24 Norte 35 Noroeste 0 969.6 -0.4 47
2019-08-15 13:00:00 23 21 Norte 41 Norte 0 969.9 0.4 48
2019-08-15 12:00:00 22.4 28 Norte 39 Norte 0 970.2 0.8 52
2019-08-15 11:00:00 20.9 24 Norte 39 Norte 0 970 1 64
2019-08-15 10:00:00 19.7 21 Norte 32 Norte 0 969.5 1 72
2019-08-15 09:00:00 18.3 16 Norte 24 Norte 0 969.4 1.4 83
2019-08-15 08:00:00 18.2 14 Norte 24 Noroeste 0 969 0.8 87
2019-08-15 07:00:00 18.1 7 Norte 17 Norte 0 968.5 0.3 84
2019-08-15 06:00:00 18.7 10 Noroeste 13 Noroeste 0 968 -0.2 83
2019-08-15 05:00:00 18.8 9 Noroeste 15 Noroeste 0 968.2 -0.5 84
2019-08-15 04:00:00 18.1 4 Norte 9 Noroeste 0 968.2 -0.4 85
2019-08-15 03:00:00 18.3 9 Norte 18 Norte 0 968.2 -0.6 83
2019-08-15 02:00:00 19.1 14 Norte 18 Norte 0 968.7 -0.1 79
2019-08-15 01:00:00 18.9 7 Nordeste 21 Nordeste 0 968.6 0.3 75
2019-08-15 00:00:00 19.5 8 Nordeste 13 Nordeste 0 968.8 1.2 70
2019-08-14 23:00:00 20.2 12 Norte 32 Norte 0 968.8 1.7 66
2019-08-14 22:00:00 20.9 18 Nordeste 32 Nordeste 0 968.3 1.7 60
2019-08-14 21:00:00 22 23 Norte 33 Nordeste 0 967.6 1 57
2019-08-14 20:00:00 23.5 21 Norte 35 Norte 0 967.1 0.6 49
2019-08-14 19:00:00 25.8 23 Norte 42 Norte 0 966.6 0.1 38
2019-08-14 18:00:00 27 25 Norte 41 Norte 0 966.6 0 37
2019-08-14 17:00:00 28.6 24 Norte 39 Norte 0 966.5 -0.6 34
2019-08-14 16:00:00 29.1 22 Norte 42 Norte 0 966.5 -1.2 30
2019-08-14 15:00:00 28.9 19 Norte 33 Noroeste 0 966.6 -1.6 32
2019-08-14 14:00:00 28.3 12 Noroeste 26 Norte 0 967.1 -1.4 29
2019-08-14 13:00:00 25.9 9 Norte 17 Norte 0 967.7 -0.9 31
2019-08-14 12:00:00 22.6 5 Sudeste 13 Nordeste 0 968.2 -0.4 38
2019-08-14 11:00:00 19.4 4 Este 13 Norte 0 968.5 0.3 51
2019-08-14 10:00:00 15.9 4 Nordeste 9 Nordeste 0 968.6 0.5 64
2019-08-14 09:00:00 13.2 5 Nordeste 13 Nordeste 0 968.6 0.9 75
2019-08-14 08:00:00 10.2 0 Calma 8 Sudeste 0 968.2 0.3 88
2019-08-14 07:00:00 9.7 4 Nordeste 8 Norte 0 968.1 -0.3 89
2019-08-14 06:00:00 10.1 0 Calma 8 Este 0 967.7 -1 90
2019-08-14 05:00:00 10.4 5 Este 8 Este 0 967.9 -1.1 88
2019-08-14 04:00:00 10.8 3 Sudeste 8 Sudeste 0 968.4 -0.7 89
2019-08-14 03:00:00 11.6 0 Calma 11 Sudeste 0 968.7 -0.4 86
2019-08-14 02:00:00 12.3 3 Nordeste 11 Noroeste 0 969 -0.3 83
2019-08-14 01:00:00 13 11 Noroeste 13 Norte 0 969.1 -0.1 81
2019-08-14 00:00:00 13.8 8 Norte 18 Norte 0 969.1 0.4 78
2019-08-13 23:00:00 14.6 14 Norte 24 Norte 0 969.3 1.2 76
2019-08-13 22:00:00 15.6 15 Norte 24 Norte 0 969.2 1.1 72
2019-08-13 21:00:00 17.4 18 Norte 32 Norte 0 968.7 0.6 64
2019-08-13 20:00:00 18.9 22 Norte 41 Norte 0 968.1 -0.1 57
2019-08-13 19:00:00 20.3 23 Norte 39 Norte 0 968.1 -0.3 49
2019-08-13 18:00:00 21.1 26 Norte 39 Norte 0 968.1 -0.5 47
2019-08-13 17:00:00 22 26 Norte 42 Norte 0 968.2 -0.7 44
2019-08-13 16:00:00 21.9 28 Norte 45 Norte 0 968.4 -0.9 42
2019-08-13 15:00:00 21.6 24 Norte -- -- -- 968.6 -1.1 43
2019-08-13 14:00:00 21.5 27 Norte 45 Norte 0 968.9 -0.9 45
2019-08-13 13:00:00 21.4 24 Noroeste 39 Norte 0 969.3 -0.5 47
2019-08-13 12:00:00 20.8 23 Norte 35 Noroeste 0 969.7 0 49
2019-08-13 11:00:00 18.7 23 Norte 32 Norte 0 969.8 0.3 54
2019-08-13 10:00:00 16.2 18 Norte 28 Noroeste 0 969.8 0.4 67
2019-08-13 09:00:00 14.6 14 Noroeste 18 Noroeste 0 969.7 0.5 74
2019-08-13 08:00:00 13.5 14 Noroeste 18 Norte 0 969.5 0 79
2019-08-13 07:00:00 12.9 13 Norte 17 Noroeste 0 969.4 -0.6 83
2019-08-13 06:00:00 13 13 Norte 21 Noroeste 0 969.2 -1 82
2019-08-13 05:00:00 12.9 10 Noroeste 22 Norte 0 969.5 -1.2 82
2019-08-13 04:00:00 13.6 11 Noroeste 28 Norte 0 970 -0.8 79
2019-08-13 03:00:00 14.1 18 Noroeste 26 Norte 0 970.2 -1.1 78
2019-08-13 02:00:00 14.3 15 Norte 28 Norte 0 970.7 -0.8 78
2019-08-13 01:00:00 14.6 17 Norte 33 Norte 0 970.8 -0.4 74
2019-08-13 00:00:00 14.8 18 Norte 30 Norte 0 971.3 0.6 73
2019-08-12 23:00:00 15.1 14 Norte 24 Norte 0 971.5 1.9 71
2019-08-12 22:00:00 15 17 Norte 33 Nordeste 0 971.2 2 71
2019-08-12 21:00:00 15.2 21 Norte 42 Norte 0 970.7 1.6 72
2019-08-12 20:00:00 17.7 21 Norte 48 Norte 0 969.6 0.7 57
2019-08-12 19:00:00 17.6 28 Norte 45 Norte 0 969.2 -0.1 58
2019-08-12 18:00:00 18.9 33 Norte 48 Norte 0 969.1 0.3 51
2019-08-12 17:00:00 20.7 26 Norte 48 Norte 0 968.9 -0.4 49
2019-08-12 16:00:00 19.6 35 Norte 52 Norte 0 969.3 0.1 51
2019-08-12 15:00:00 20.5 29 Norte 48 Noroeste 0 968.8 -0.4 48
2019-08-12 14:00:00 20.6 41 Noroeste 55 Noroeste 0 969.3 0.4 47
2019-08-12 13:00:00 18.8 22 Norte 33 Norte 0 969.2 0.8 54
2019-08-12 12:00:00 17.7 23 Norte 35 Norte 0 969.2 1.3 60
2019-08-12 11:00:00 17.9 28 Norte 39 Norte 0 968.9 1.6 57
2019-08-12 10:00:00 17.9 28 Norte 39 Norte 0 968.4 1.4 58
2019-08-12 09:00:00 16.5 15 Noroeste 30 Noroeste 0 967.9 1.4 67
2019-08-12 08:00:00 14.4 15 Noroeste 28 Noroeste 0 967.3 0.9 75
2019-08-12 07:00:00 14.8 15 Noroeste 24 Norte 0 967 0.4 73
2019-08-12 06:00:00 15.1 17 Norte 26 Norte 0 966.5 -0.3 79
2019-08-12 05:00:00 15.2 14 Noroeste 26 Noroeste 0 966.4 -0.8 80
2019-08-12 04:00:00 15 17 Noroeste 33 Norte 0 966.6 -0.7 80
2019-08-12 03:00:00 15.6 22 Norte 30 Norte 0 966.8 -0.4 79
2019-08-12 02:00:00 15.9 21 Norte 32 Norte 0 967.2 0.4 76
2019-08-12 01:00:00 15.8 18 Noroeste 32 Norte 0 967.3 1 78
2019-08-12 00:00:00 16.4 23 Noroeste 32 Noroeste 0 967.2 1.5 76
2019-08-11 23:00:00 16.6 22 Norte 33 Norte 0 966.8 1.7 75
2019-08-11 22:00:00 16.7 23 Norte 37 Noroeste 0 966.3 2 77
2019-08-11 21:00:00 18.1 24 Noroeste 35 Norte 0 965.7 1.7 72
2019-08-11 20:00:00 19.9 26 Norte 41 Noroeste 0 965.1 1 63
2019-08-11 19:00:00 21.3 24 Norte 41 Norte 0 964.3 0.2 58
2019-08-11 18:00:00 23.4 25 Norte 37 Norte 0 964 -0.2 49
2019-08-11 17:00:00 24.1 28 Norte 39 Noroeste 0 964.1 -0.7 49
2019-08-11 16:00:00 25.2 22 Norte 37 Norte 0 964.1 -0.9 46
2019-08-11 15:00:00 24.6 20 Norte 32 Noroeste 0 964.2 -0.7 47
2019-08-11 14:00:00 23.9 21 Norte 33 Norte 0 964.8 0.1 53
2019-08-11 13:00:00 23.6 21 Noroeste 30 Noroeste 0 965 0 58
2019-08-11 12:00:00 21.7 13 Noroeste 22 Noroeste 0 964.9 0.1 66
2019-08-11 11:00:00 20.5 9 Noroeste 21 Norte 0 964.7 -0.4 72
2019-08-11 10:00:00 18.7 12 Norte 18 Noroeste 0 965 1.1 83
2019-08-11 09:00:00 16.2 12 Noroeste 22 Norte 1 964.8 0.7 95
2019-08-11 08:00:00 17.2 11 Noroeste 18 Noroeste 0 965.1 1 83
2019-08-11 07:00:00 17.1 11 Noroeste 21 Noroeste 0 963.9 0 84
2019-08-11 06:00:00 17.1 17 Noroeste 24 Noroeste 0 964.1 -0.7 84
2019-08-11 05:00:00 17 14 Noroeste 26 Norte 0 964.1 -1.6 84
2019-08-11 04:00:00 17.1 17 Norte 24 Noroeste 0 963.9 -2.4 84
2019-08-11 03:00:00 17.1 13 Noroeste 22 Norte 0 964.8 -1.9 85
2019-08-11 02:00:00 17.1 20 Noroeste 30 Norte 0 965.7 -1.4 85
2019-08-11 01:00:00 17.1 17 Noroeste 28 Noroeste 0 966.3 -0.6 86
2019-08-11 00:00:00 17.6 22 Noroeste 32 Norte 0 966.7 0.5 81
2019-08-10 23:00:00 17.7 21 Noroeste 33 Norte 0 967.1 1.7 82
2019-08-10 22:00:00 17.9 21 Noroeste 37 Noroeste 0 966.9 1.4 80
2019-08-10 21:00:00 19.3 26 Noroeste 39 Noroeste 0 966.2 0.3 73
2019-08-10 20:00:00 21.9 28 Noroeste 39 Noroeste 0 965.4 -0.5 65
2019-08-10 19:00:00 24.1 31 Noroeste 42 Noroeste 0 965.5 -0.7 57
2019-08-10 18:00:00 24.6 29 Noroeste 41 Noroeste 0 965.9 -0.9 53
2019-08-10 17:00:00 27.1 24 Norte 35 Norte 0 965.9 -1 44
2019-08-10 16:00:00 27.6 22 Noroeste 35 Norte 0 966.2 -1.1 42
2019-08-10 15:00:00 26.9 22 Norte 37 Noroeste 0 966.8 -1 42
2019-08-10 14:00:00 27.9 19 Noroeste 32 Noroeste 0 966.9 -0.8 42
2019-08-10 13:00:00 26.1 17 Noroeste 33 Norte 0 967.3 -0.3 48
2019-08-10 12:00:00 24.4 10 Noroeste 26 Norte 0 967.8 0.6 57
2019-08-10 11:00:00 22.3 10 Norte 18 Norte 0 967.7 0.8 71
2019-08-10 10:00:00 19.8 2 Norte 8 Oeste 0 967.6 1.2 83
2019-08-10 09:00:00 16.5 0 Calma 9 Sudeste 0 967.2 1.4 96
2019-08-10 08:00:00 14.6 0 Calma 5 Sudoeste 0 966.9 1.3 96
2019-08-10 07:00:00 14.3 0 Calma 5 Sudeste 0 966.4 0.6 96
2019-08-10 06:00:00 14.4 0 Calma 5 Norte 0 965.8 0.4 97
2019-08-10 05:00:00 14.8 4 Oeste 9 Oeste 0 965.6 0.2 96
2019-08-10 04:00:00 15 6 Oeste 9 Oeste 0 965.8 0.9 95
2019-08-10 03:00:00 15.5 0 Calma 9 Oeste 0 965.4 0.7 95
2019-08-10 02:00:00 16.4 6 Oeste 11 Oeste 0 965.4 0.6 94
2019-08-10 01:00:00 17.2 5 Oeste 9 Oeste 0 964.9 1 93
2019-08-10 00:00:00 18.6 0 Calma 15 Este 0 964.7 2.6 89
2019-08-09 23:00:00 18.3 8 Nordeste 42 Noroeste 1.2 964.8 4.3 88
2019-08-09 22:00:00 22.6 35 Noroeste 55 Noroeste 0.2 963.9 4.4 59
2019-08-09 21:00:00 25 12 Sur 39 Sudoeste 0.1 962.1 2.5 61
2019-08-09 20:00:00 29.2 12 Noroeste 24 Norte 0 960.5 1 48
2019-08-09 19:00:00 29.6 19 Norte 33 Norte 0 959.5 -0.1 47
2019-08-09 18:00:00 30.3 24 Norte 33 Norte 0 959.6 -0.1 47
2019-08-09 17:00:00 32.4 21 Oeste 39 Sudoeste 0 959.5 -0.5 36
2019-08-09 16:00:00 34 20 Sudoeste 46 Oeste 0 959.6 -0.5 30
2019-08-09 15:00:00 36.5 22 Sudoeste 41 Oeste 0 959.7 -0.5 27
2019-08-09 14:00:00 33.7 17 Sudoeste 42 Sur 0 960 -0.2 31
2019-08-09 13:00:00 33.3 15 Sudoeste 37 Sudoeste 0 960.1 0.2 31
2019-08-09 12:00:00 33.2 23 Sur 33 Sur 0 960.2 0.3 33
2019-08-09 11:00:00 31.6 16 Sudoeste 28 Oeste 0 960.2 0.7 35
2019-08-09 10:00:00 29.6 21 Sur 32 Sur 0 959.9 0.7 39
2019-08-09 09:00:00 27.9 18 Sur 26 Sur 0 959.9 1.1 44
2019-08-09 08:00:00 25.6 13 Sur 24 Sur 0 959.5 0.8 49
2019-08-09 07:00:00 25 16 Sur 26 Sur 0 959.2 0.6 50
2019-08-09 06:00:00 26.3 21 Sudoeste 30 Sudoeste 0 958.8 0 45
2019-08-09 05:00:00 26.7 18 Sudoeste 30 Sur 0 958.7 0.1 44
2019-08-09 04:00:00 27.5 21 Sudoeste 30 Sur 0 958.6 0.6 42
2019-08-09 03:00:00 27.2 7 Sudoeste 26 Sudoeste 0 958.8 1 44
2019-08-09 02:00:00 29 18 Sudoeste 30 Sur 0 958.6 0.6 38
2019-08-09 01:00:00 30.4 19 Sur 33 Sur 0 958 0.4 35
2019-08-09 00:00:00 28 10 Sur 21 Sur 0 957.8 0.6 42
2019-08-08 23:00:00 28.1 11 Sur 15 Sur 0 958 0.7 44
2019-08-08 22:00:00 29.3 10 Sur 13 Sur 0 957.6 -0.1 42
2019-08-08 21:00:00 32.1 9 Sur 21 Sur 0 957.2 -1.1 36
2019-08-08 20:00:00 34.2 9 Sur 28 Sur 0 957.3 -1.5 32
2019-08-08 19:00:00 34.4 10 Sur 33 Sur 0 957.7 -1.7 31
2019-08-08 18:00:00 34.8 12 Sur 26 Sudoeste 0 958.3 -1.5 30
2019-08-08 17:00:00 34.6 10 Sudoeste 30 Sudoeste 0 958.8 -1.3 31
2019-08-08 16:00:00 34.9 21 Sudoeste 39 Sudoeste 0 959.4 -1.2 30
2019-08-08 15:00:00 33.4 17 Sudoeste 37 Sudoeste 0 959.8 -1.5 33
2019-08-08 14:00:00 32.7 20 Sudoeste 45 Sudoeste 0 960.1 -0.8 33
2019-08-08 13:00:00 31.6 15 Sur 32 Sur 0 960.6 -0.4 35
2019-08-08 12:00:00 30.5 15 Sur 33 Sur 0 961.3 0.4 38
2019-08-08 11:00:00 28.3 16 Sudoeste 26 Sudoeste 0 960.9 -0.2 41
2019-08-08 10:00:00 25.7 5 Sudoeste 18 Sudoeste 0 961 0 48
2019-08-08 09:00:00 23.5 14 Sur 21 Sur 0 960.9 0.1 54
2019-08-08 08:00:00 21.3 7 Sudeste 11 Sudeste 0 961.1 0.3 67
2019-08-08 07:00:00 20.1 5 Sudoeste 9 Sudoeste 0 961 0.2 73
2019-08-08 06:00:00 21.2 6 Sur 17 Sur 0 960.8 -0.3 67
2019-08-08 05:00:00 21.8 6 Sudeste 9 Sur 0 960.8 -0.4 67
2019-08-08 04:00:00 22.1 5 Sudeste 9 Este 0 960.8 0 66
2019-08-08 03:00:00 22.1 6 Sudeste 9 Sudeste 0 961.1 0.6 67
2019-08-08 02:00:00 22.4 4 Oeste 17 Noroeste 0 961.2 1 67
2019-08-08 01:00:00 23.5 5 Oeste 9 Oeste 0 960.8 1.2 58
2019-08-08 00:00:00 24.1 2 Sur 21 Noroeste 0 960.5 1.4 54
2019-08-07 23:00:00 24.6 9 Noroeste 17 Noroeste 0 960.2 1 57
2019-08-07 22:00:00 25.3 4 Noroeste 11 Nordeste 0 959.6 0.6 58
2019-08-07 21:00:00 26.1 3 Norte 15 Norte 0 959.1 0 58
2019-08-07 20:00:00 26.9 13 Norte 22 Noroeste 0 959.2 0 55
2019-08-07 19:00:00 28.8 14 Noroeste 30 Noroeste 0 959 -0.6 48
2019-08-07 18:00:00 30.4 14 Noroeste 26 Noroeste 0 959.1 -1 42
2019-08-07 17:00:00 30.2 10 Nordeste 22 Noroeste 0 959.2 -1.1 37
2019-08-07 16:00:00 29.6 13 Norte 33 Noroeste 0 959.6 -1.2 39
2019-08-07 15:00:00 30.3 17 Noroeste 26 Noroeste 0 960.1 -1 41
2019-08-07 14:00:00 29.4 13 Noroeste 28 Noroeste 0 960.3 -0.9 43
2019-08-07 13:00:00 28 9 Noroeste 22 Norte 0 960.8 0 49
2019-08-07 12:00:00 25.3 8 Norte 22 Noroeste 0 961.1 0.6 57
2019-08-07 11:00:00 24.1 9 Norte 18 Noroeste 0 961.2 1.5 61
2019-08-07 10:00:00 21.7 16 Noroeste 28 Noroeste 0 960.8 1.4 69
2019-08-07 09:00:00 19.5 13 Noroeste 17 Noroeste 0 960.5 1.6 77
2019-08-07 08:00:00 18.4 9 Oeste 15 Noroeste 0 959.7 1.2 83
2019-08-07 07:00:00 18.4 8 Noroeste 26 Noroeste 0 959.4 0.4 81
2019-08-07 06:00:00 18.8 10 Noroeste 18 Noroeste 0 958.9 -1.4 81
2019-08-07 05:00:00 18.6 9 Noroeste 11 Oeste 0 958.5 -2.6 82
2019-08-07 04:00:00 18.9 3 Noroeste 17 Noroeste 0 959 -2 81
2019-08-07 03:00:00 19.2 9 Norte 32 Noroeste 0 960.3 -1 80
2019-08-07 02:00:00 19.1 20 Norte 37 Norte 0 961.1 -0.4 84
2019-08-07 01:00:00 19.5 23 Norte 35 Norte 0 961 0.7 83
2019-08-07 00:00:00 19.9 22 Norte 45 Norte 0 961.3 1.8 83
2019-08-06 23:00:00 20.6 29 Norte 45 Norte 0 961.5 2.7 80
2019-08-06 22:00:00 22.4 27 Norte 42 Norte 0 960.3 1.8 77
2019-08-06 21:00:00 23.6 30 Norte 42 Norte 0 959.5 1.1 73
2019-08-06 20:00:00 25.3 25 Norte 39 Norte 0 958.8 0.4 69
2019-08-06 19:00:00 27.4 24 Norte 37 Norte 0 958.5 -0.4 62
2019-08-06 18:00:00 30.3 26 Norte 39 Norte 0 958.4 -1.3 53
2019-08-06 17:00:00 32.9 6 Noroeste 21 Oeste 0 958.4 -2.2 31
2019-08-06 16:00:00 34.5 12 Oeste 21 Oeste 0 958.9 -2.2 30
2019-08-06 15:00:00 32.4 8 Sudoeste 15 Este 0 959.7 -1.7 38
2019-08-06 14:00:00 30.2 9 Noroeste 18 Noroeste 0 960.6 -1 44
2019-08-06 13:00:00 28.8 10 Norte 17 Norte 0 961.1 -0.6 49
2019-08-06 12:00:00 26.9 3 Sudoeste 15 Noroeste 0 961.4 -0.5 54
2019-08-06 11:00:00 24.8 7 Noroeste 17 Noroeste 0 961.6 -0.2 61
2019-08-06 10:00:00 22.5 6 Este 17 Nordeste 0 961.7 -0.3 69
2019-08-06 09:00:00 21 10 Nordeste 15 Nordeste 0 961.9 -0.2 75
2019-08-06 08:00:00 19 2 Sudeste 8 Oeste 0 961.8 -0.4 85
2019-08-06 07:00:00 18.7 4 Oeste 9 Oeste 0 962 -0.3 86
2019-08-06 06:00:00 18.6 5 Oeste 9 Oeste 0 962.1 -0.5 86
2019-08-06 05:00:00 18.4 2 Norte 11 Noroeste 0 962.2 -0.8 87
2019-08-06 04:00:00 18.2 8 Noroeste 11 Norte 0 962.3 -0.8 88
2019-08-06 03:00:00 18.6 5 Noroeste 18 Noroeste 0 962.6 -0.5 86
2019-08-06 02:00:00 19.1 14 Norte 21 Norte 0 963 0 85
2019-08-06 01:00:00 19.4 14 Norte 24 Noroeste 0 963.1 0.4 83
2019-08-06 00:00:00 19.6 15 Noroeste 26 Norte 0 963.1 1 82
2019-08-05 23:00:00 19.8 13 Noroeste 26 Noroeste 0 963 1.1 82
2019-08-05 22:00:00 20.2 17 Noroeste 33 Norte 0 962.7 1.1 81
2019-08-05 21:00:00 21.1 23 Noroeste 41 Noroeste 0 962.1 1 78
2019-08-05 20:00:00 22.2 30 Noroeste 42 Noroeste 0 961.9 1.1 74
2019-08-05 19:00:00 24.2 32 Norte 46 Norte 0 961.6 0.5 68
2019-08-05 18:00:00 27.2 32 Noroeste 45 Noroeste 0 961.1 -0.4 58
2019-08-05 17:00:00 30.9 30 Noroeste 39 Norte 0 960.8 -1.4 50
2019-08-05 16:00:00 32.6 22 Noroeste 32 Noroeste 0 961.1 -1.9 43
2019-08-05 15:00:00 32.2 8 Noroeste 22 Norte 0 961.5 -2.3 40
2019-08-05 14:00:00 31.2 8 Oeste 24 Sur 0 962.2 -1.8 42
2019-08-05 13:00:00 28.6 8 Noroeste 17 Noroeste 0 963 -1.4 50
2019-08-05 12:00:00 26.2 4 Noroeste 17 Noroeste 0 963.8 -0.9 55
2019-08-05 11:00:00 24.1 6 Noroeste 18 Noroeste 0 964 -0.7 62
2019-08-05 10:00:00 22.1 6 Nordeste 15 Nordeste 0 964.4 0 69
2019-08-05 09:00:00 20.9 4 Noroeste 8 Noroeste 0 964.7 0.5 74
2019-08-05 08:00:00 17.1 2 Sur 5 Sudeste 0 964.7 0.5 91
2019-08-05 07:00:00 16.5 0 Calma 5 Sudeste 0 964.4 0 90
2019-08-05 06:00:00 17.2 6 Norte 13 Noroeste 0 964.2 -0.5 87
2019-08-05 05:00:00 17.8 10 Noroeste 13 Noroeste 0 964.2 -0.6 86
2019-08-05 04:00:00 18.5 11 Noroeste 17 Norte 0 964.4 -0.7 83
2019-08-05 03:00:00 18.9 12 Norte 24 Norte 0 964.7 -0.4 82
2019-08-05 02:00:00 19 17 Norte 28 Norte 0 964.8 -0.2 81
2019-08-05 01:00:00 19.6 18 Norte 30 Norte 0 965.1 0.7 79
2019-08-05 00:00:00 19.8 20 Norte 30 Norte 0 965.1 1.6 79
2019-08-04 23:00:00 19.9 20 Norte 39 Norte 0 965 2.2 79
2019-08-04 22:00:00 20.1 26 Norte 41 Norte 0 964.4 1.9 81
2019-08-04 21:00:00 20.2 27 Norte 41 Norte 0 963.5 1.8 80
2019-08-04 20:00:00 22.1 24 Norte 42 Norte 0 962.8 1.6 73
2019-08-04 19:00:00 22.8 35 Norte 48 Norte 0 962.5 1.5 73
2019-08-04 18:00:00 26.8 34 Noroeste 46 Noroeste 0 961.7 0.3 60
2019-08-04 17:00:00 30.1 32 Noroeste 42 Noroeste 0 961.2 -0.9 52
2019-08-04 16:00:00 33.3 14 Noroeste 26 Norte 0 961 -1.9 38
2019-08-04 15:00:00 31.4 9 Norte 21 Norte 0 961.4 -2 42
2019-08-04 14:00:00 30.6 5 Oeste 17 Norte 0 962.1 -1.7 44
2019-08-04 13:00:00 27.9 6 Este 17 Noroeste 0 962.9 -1.1 52
2019-08-04 12:00:00 26.4 9 Noroeste 17 Noroeste 0 963.4 -0.5 56
2019-08-04 11:00:00 24.3 9 Noroeste 15 Norte 0 963.8 0.2 64
2019-08-04 10:00:00 21.6 3 Nordeste 8 Nordeste 0 964 0.6 74
2019-08-04 09:00:00 20.6 0 Calma 8 Este 0 963.9 0.7 79
2019-08-04 08:00:00 17.2 6 Sudeste 9 Sudeste 0 963.6 0.5 91
2019-08-04 07:00:00 17.2 0 Calma 8 Sur 0 963.4 0.5 91
2019-08-04 06:00:00 17.8 2 Sudeste 13 Noroeste 0 963.2 0.4 89
2019-08-04 05:00:00 18.9 10 Noroeste 21 Noroeste 0 963.1 0.4 86
2019-08-04 04:00:00 19 12 Noroeste 24 Noroeste 0 962.9 0.2 86
2019-08-04 03:00:00 19.4 12 Noroeste 28 Norte 0 962.8 0.3 85
2019-08-04 02:00:00 19.9 14 Noroeste 24 Norte 0 962.7 0.3 85
2019-08-04 01:00:00 20.9 15 Noroeste 24 Noroeste 0 962.7 1 82
2019-08-04 00:00:00 22 16 Noroeste 26 Noroeste 0 962.5 1.5 79
2019-08-03 23:00:00 23.1 14 Noroeste 21 Noroeste 0 962.4 2 76
2019-08-03 22:00:00 24.2 13 Noroeste 22 Noroeste 0 961.7 1.7 72
2019-08-03 21:00:00 26.3 14 Noroeste 26 Noroeste 0 961 1.3 65
2019-08-03 20:00:00 28.8 21 Noroeste 42 Noroeste 0 960.4 0.1 56
2019-08-03 19:00:00 31.5 26 Noroeste 35 Noroeste 0 960 -0.8 44
2019-08-03 18:00:00 34 14 Norte 26 Noroeste 0 959.7 -1.8 28
2019-08-03 17:00:00 34.3 9 Norte 22 Norte 0 960.3 -2.2 28
2019-08-03 16:00:00 33.7 10 Noroeste 21 Norte 0 960.8 -2.3 30
2019-08-03 15:00:00 32.4 7 Norte 18 Este 0 961.5 -2.2 32
2019-08-03 14:00:00 31.6 4 Este 33 Oeste 0 962.5 -1.7 35
2019-08-03 13:00:00 28.9 5 Noroeste 15 Nordeste 0 963.1 -1.4 40
2019-08-03 12:00:00 26 6 Oeste 11 Noroeste 0 963.7 -0.9 48
2019-08-03 11:00:00 22.9 4 Norte 11 Noroeste 0 964.2 -0.1 59
2019-08-03 10:00:00 19.6 2 Nordeste 11 Este 0 964.5 0.3 71
2019-08-03 09:00:00 17.1 5 Nordeste 11 Nordeste 0 964.6 0.5 81
2019-08-03 08:00:00 14.8 0 Calma 5 Sur 0 964.3 0 91
2019-08-03 07:00:00 13.3 2 Sur 5 Sur 0 964.2 -0.2 94
2019-08-03 06:00:00 13.7 0 Calma 8 Sudeste 0 964.1 -0.6 95
2019-08-03 05:00:00 14.1 0 Calma 8 Este 0 964.3 -0.5 94
2019-08-03 04:00:00 15.1 4 Sudeste 8 Sudeste 0 964.4 -0.5 94
2019-08-03 03:00:00 15.9 4 Nordeste 9 Sudeste 0 964.7 -0.3 90
2019-08-03 02:00:00 16.8 8 Noroeste 15 Noroeste 0 964.8 -0.2 89
2019-08-03 01:00:00 17.7 11 Noroeste 18 Norte 0 964.9 0.4 87
2019-08-03 00:00:00 18.4 10 Noroeste 26 Norte 0 965 0.9 85
2019-08-02 23:00:00 19.2 17 Noroeste -- -- -- 965 1.3 83
2019-08-02 22:00:00 20.3 21 Norte 33 Norte 0 964.5 0.9 77
2019-08-02 21:00:00 22.2 24 Norte 32 Noroeste 0 964.1 0.3 70
2019-08-02 20:00:00 24.6 24 Noroeste 35 Noroeste 0 963.7 -0.4 58
2019-08-02 19:00:00 26.4 26 Noroeste 37 Noroeste 0 963.6 -1 50
2019-08-02 18:00:00 27.4 27 Noroeste 35 Noroeste 0 963.8 -1.1 46
2019-08-02 17:00:00 27.2 26 Norte 35 Norte 0 964.1 -1 47
2019-08-02 16:00:00 27.4 24 Norte 33 Norte 0 964.6 -0.6 45
2019-08-02 15:00:00 27.3 22 Noroeste 35 Noroeste 0 964.9 -0.6 47
2019-08-02 14:00:00 26.7 23 Noroeste 39 Noroeste 0 965.1 -0.4 49
2019-08-02 13:00:00 26.1 20 Noroeste -- -- -- 965.2 -0.4 52
2019-08-02 12:00:00 25 18 Noroeste 33 Norte 0 965.5 0 55
2019-08-02 11:00:00 23.5 15 Noroeste 26 Noroeste 0 965.5 0.5 60
2019-08-02 10:00:00 21.4 18 Noroeste 26 Norte 0 965.6 0.9 66
2019-08-02 09:00:00 20 17 Norte 22 Norte 0 965.5 0.7 71
2019-08-02 08:00:00 18.8 14 Norte 22 Noroeste 0 965 0.1 77
2019-08-02 07:00:00 17.7 11 Norte 21 Norte 0 964.7 -0.4 82
2019-08-02 06:00:00 17.7 14 Norte 21 Norte 0 964.8 -0.4 81
2019-08-02 05:00:00 17.7 15 Norte 22 Noroeste 0 964.9 -0.2 82
2019-08-02 04:00:00 17.2 11 Noroeste 26 Noroeste 0 965.1 -0.3 83
2019-08-02 03:00:00 17.4 17 Noroeste 24 Noroeste 0 965.2 -0.1 85
2019-08-02 02:00:00 17.5 14 Noroeste 30 Noroeste 0 965.1 0 86
2019-08-02 01:00:00 18.2 18 Noroeste 33 Noroeste 0 965.4 0.9 84
2019-08-02 00:00:00 18.4 19 Noroeste 28 Noroeste 0 965.3 1.6 82
2019-08-01 23:00:00 18.6 17 Noroeste 30 Noroeste 0 965.1 2.2 80
2019-08-01 22:00:00 18.9 19 Noroeste 33 Norte 0 964.5 2.6 80
2019-08-01 21:00:00 19.7 24 Norte 35 Norte 0 963.7 2.9 79
2019-08-01 20:00:00 20.5 24 Norte 48 Noroeste 0 962.9 2.6 77
2019-08-01 19:00:00 23.5 32 Norte 46 Norte 0 961.9 0.9 67
2019-08-01 18:00:00 27.4 29 Norte 45 Noroeste 0 960.8 -0.6 57
2019-08-01 17:00:00 29.6 10 Norte 22 Norte 0 960.3 -1.5 45
2019-08-01 16:00:00 29.1 10 Nordeste 21 Oeste 0 961 -1.3 47
2019-08-01 15:00:00 28.3 6 Noroeste 22 Noroeste 0 961.4 -1.5 48
2019-08-01 14:00:00 27.3 8 Oeste 15 Oeste 0 961.8 -0.9 51
2019-08-01 13:00:00 23.9 6 Nordeste 22 Este 0 962.3 -1.3 62
2019-08-01 12:00:00 21.9 9 Este 32 Este 0 962.9 -1.2 69
2019-08-01 11:00:00 18.5 17 Sudeste 26 Sudeste 1.6 962.7 -1.6 86
2019-08-01 10:00:00 16.4 14 Este 30 Noroeste 1.8 963.6 0.1 90
2019-08-01 09:00:00 16.6 9 Sur 15 Sudeste 1.1 964.1 0.7 88
2019-08-01 08:00:00 16.9 4 Nordeste -- -- -- 964.3 1.5 81
2019-08-01 07:00:00 15.9 8 Sur 17 Norte 0 963.5 0.4 87
2019-08-01 06:00:00 15.1 4 Noroeste 11 Noroeste 0 963.4 -0.2 88
2019-08-01 05:00:00 15 0 Calma 5 Sudoeste 0 962.8 -1.4 88
2019-08-01 04:00:00 15 4 Oeste 5 Oeste 0 963.1 -1.5 87
2019-08-01 03:00:00 15.1 2 Norte 8 Norte 0 963.6 -1.3 87
2019-08-01 02:00:00 15.4 5 Noroeste 9 Oeste 0 964.2 -0.7 84
2019-08-01 01:00:00 16.2 8 Noroeste 13 Noroeste 0 964.6 0.4 82
2019-08-01 00:00:00 16.9 10 Noroeste 18 Noroeste 0 964.9 1.2 79
2019-07-31 23:00:00 17.6 15 Noroeste 22 Noroeste 0 964.9 1.5 76
2019-07-31 22:00:00 18.7 19 Noroeste 28 Noroeste 0 964.2 0.6 71
2019-07-31 21:00:00 20.2 20 Noroeste 30 Noroeste 0 963.7 -0.1 65
2019-07-31 20:00:00 22.5 17 Noroeste 30 Noroeste 0 963.4 -0.7 57
2019-07-31 19:00:00 24.2 22 Norte 30 Norte 0 963.6 -0.9 51
2019-07-31 18:00:00 25.2 18 Norte 30 Noroeste 0 963.8 -1 46
2019-07-31 17:00:00 26.4 16 Norte 24 Norte 0 964.1 -1.4 42
2019-07-31 16:00:00 26.4 15 Norte 32 Noroeste 0 964.5 -1.6 40
2019-07-31 15:00:00 26.3 13 Noroeste 28 Noroeste 0 964.8 -1.9 39
2019-07-31 14:00:00 25 13 Norte 22 Norte 0 965.5 -1.6 39
2019-07-31 13:00:00 23.8 12 Noroeste 18 Noroeste 0 966.1 -1.5 39
2019-07-31 12:00:00 22.2 9 Noroeste 17 Noroeste 0 966.7 -1.1 44
2019-07-31 11:00:00 19.7 5 Nordeste 17 Noroeste 0 967.1 -0.8 52
2019-07-31 10:00:00 17.7 7 Noroeste 13 Noroeste 0 967.6 -0.2 61
2019-07-31 09:00:00 14.8 0 Calma 9 Sudeste 0 967.8 -0.1 74
2019-07-31 08:00:00 11.3 2 Sudeste 8 Sudeste 0 967.9 -0.2 88
2019-07-31 07:00:00 10.1 0 Calma 8 Sudeste 0 967.8 -0.4 91
2019-07-31 06:00:00 10.5 0 Calma 13 Noroeste 0 967.9 -0.4 90
2019-07-31 05:00:00 10.7 0 Calma -- -- -- 968.1 -0.3 90
2019-07-31 04:00:00 11.9 11 Noroeste 18 Norte 0 968.2 -0.4 86
2019-07-31 03:00:00 12.5 14 Noroeste 18 Noroeste 0 968.3 -0.3 85
2019-07-31 02:00:00 13 13 Noroeste 18 Noroeste 0 968.4 -0.5 83
2019-07-31 01:00:00 13.6 14 Noroeste 21 Noroeste 0 968.6 0.2 80
2019-07-31 00:00:00 14.6 15 Norte 30 Norte 0 968.6 0.8 74
2019-07-30 23:00:00 15.3 20 Norte 30 Norte 0 968.9 1.4 70
2019-07-30 22:00:00 15.8 21 Norte 35 Norte 0 968.4 1.2 64
2019-07-30 21:00:00 16.7 24 Norte 39 Norte 0 967.8 0.6 62
2019-07-30 20:00:00 17.9 27 Norte 41 Norte 0 967.5 0.5 56
2019-07-30 19:00:00 19.2 31 Norte 45 Norte 0 967.2 0 53
2019-07-30 18:00:00 20.7 29 Norte 46 Nordeste 0 967.2 -0.2 46
2019-07-30 17:00:00 21.2 32 Norte 45 Norte 0 967 -0.2 44
2019-07-30 16:00:00 22 30 Norte 42 Norte 0 967.2 -0.1 45
2019-07-30 15:00:00 21.1 29 Norte 46 Noroeste 0 967.4 0 49
2019-07-30 14:00:00 22.4 27 Norte 42 Noroeste 0 967.2 -0.1 46
2019-07-30 13:00:00 20.1 24 Norte 37 Norte 0 967.3 0.1 52
2019-07-30 12:00:00 19.8 22 Norte 32 Norte 0 967.4 0.6 54
2019-07-30 11:00:00 18.9 17 Norte 37 Norte 0 967.3 0.9 61
2019-07-30 10:00:00 18 20 Norte 33 Norte 0 967.2 1.2 62
2019-07-30 09:00:00 16.1 17 Norte 28 Norte 0 966.8 1.2 71
2019-07-30 08:00:00 15.2 14 Norte 26 Norte 0 966.4 1.3 74
2019-07-30 07:00:00 15.1 15 Norte 26 Noroeste 0 966 1.1 73
2019-07-30 06:00:00 15.5 17 Norte 33 Norte 0 965.6 0.8 69
2019-07-30 05:00:00 15.8 16 Norte 32 Norte 0 965.1 0.2 74
2019-07-30 04:00:00 15.9 19 Norte 30 Norte 0 964.9 0.5 74
2019-07-30 03:00:00 15.3 13 Norte 33 Norte 0 964.8 0.9 74
2019-07-30 02:00:00 16.2 23 Norte 37 Norte 0 964.9 1.4 73
2019-07-30 01:00:00 16.3 16 Norte 30 Norte 0 964.4 1.8 78
2019-07-30 00:00:00 17 17 Norte 37 Norte 0 963.9 2.2 74
2019-07-29 23:00:00 17.2 22 Norte 39 Norte 0 963.5 2.5 72
2019-07-29 22:00:00 17.3 23 Norte 42 Norte 0 962.6 2.3 72
2019-07-29 21:00:00 18 32 Norte 46 Norte 0 961.7 1.9 76
2019-07-29 20:00:00 19.7 34 Norte 46 Norte 0 961 2.3 71
2019-07-29 19:00:00 21.1 30 Norte 45 Norte 0 960.3 2.5 68
2019-07-29 18:00:00 23.6 34 Norte 50 Norte 0 959.8 1.9 61
2019-07-29 17:00:00 27.3 35 Norte 46 Noroeste 0 958.7 0.1 51
2019-07-29 16:00:00 33.2 11 Oeste 33 Oeste 0 957.8 -1.2 22
2019-07-29 15:00:00 31.8 9 Sur 21 Sudoeste 0 957.9 -1.5 24
2019-07-29 14:00:00 30.4 6 Oeste 15 Oeste 0 958.6 -1 30
2019-07-29 13:00:00 27.5 7 Oeste -- -- -- 959 -0.8 34
2019-07-29 12:00:00 25.3 5 Norte 11 Norte 0 959.4 -0.5 41
2019-07-29 11:00:00 21.6 4 Oeste 13 Oeste 0 959.6 -0.2 49
2019-07-29 10:00:00 18.5 4 Noroeste 9 Noroeste 0 959.8 0.1 59
2019-07-29 09:00:00 15.5 2 Norte 5 Nordeste 0 959.9 0.4 70
2019-07-29 08:00:00 12.1 4 Oeste 5 Oeste 0 959.8 0.4 85
2019-07-29 07:00:00 9.7 0 Calma 2 Nordeste 0 959.7 0.3 91
2019-07-29 06:00:00 10.3 0 Calma 8 Nordeste 0 959.5 0 90
2019-07-29 05:00:00 10.8 0 Calma 8 Este 0 959.4 -0.1 90
2019-07-29 04:00:00 11.8 4 Nordeste 8 Nordeste 0 959.4 -0.3 84
2019-07-29 03:00:00 12 3 Sudoeste 8 Sudoeste 0 959.5 -0.3 88
2019-07-29 02:00:00 12.3 0 Calma 9 Sudeste 0 959.5 -0.4 85
2019-07-29 01:00:00 13.9 6 Nordeste 9 Nordeste 0 959.7 0.1 80
2019-07-29 00:00:00 15.4 0 Calma 13 Nordeste 0 959.8 0.3 75
2019-07-28 23:00:00 16.2 6 Nordeste 18 Nordeste 0 959.9 0.4 72
2019-07-28 22:00:00 18.1 13 Nordeste -- -- -- 959.6 0.2 63
2019-07-28 21:00:00 20.2 17 Nordeste 32 Nordeste 0 959.5 0 54
2019-07-28 20:00:00 21.4 21 Nordeste 28 Nordeste 0 959.5 -0.3 47
2019-07-28 19:00:00 22.2 18 Norte 32 Noroeste 0 959.4 -0.7 48
2019-07-28 18:00:00 23.8 21 Norte 32 Noroeste 0 959.5 -1.1 43
2019-07-28 17:00:00 24.1 19 Noroeste 35 Noroeste 0 959.8 -1.2 41
2019-07-28 16:00:00 24.1 23 Noroeste 42 Noroeste 0 960.1 -1.3 46
2019-07-28 15:00:00 23.6 18 Norte 32 Norte 0 960.6 -0.9 46
2019-07-28 14:00:00 22 16 Noroeste 33 Noroeste 0 961 -0.6 53
2019-07-28 13:00:00 20.1 23 Norte 35 Norte 0 961.4 -0.2 61
2019-07-28 12:00:00 18.1 22 Norte 33 Norte 0 961.5 0.2 71
2019-07-28 11:00:00 17.6 14 Noroeste 22 Noroeste 0 961.6 0.5 73
2019-07-28 10:00:00 16.8 15 Noroeste 22 Noroeste 0 961.6 0.8 78
2019-07-28 09:00:00 15.8 4 Noroeste 17 Norte 0 961.3 0.5 85
2019-07-28 08:00:00 13.7 11 Noroeste 21 Norte 0 961.1 0.1 95
2019-07-28 07:00:00 13.1 13 Noroeste 21 Noroeste 0 960.8 -0.2 94
2019-07-28 06:00:00 13.5 7 Noroeste 15 Noroeste 0.1 960.8 -0.1 94
2019-07-28 05:00:00 13.6 11 Norte 17 Norte 0.4 961 0.2 95
2019-07-28 04:00:00 13.6 6 Noroeste 22 Noroeste 0.5 961 0.2 96
2019-07-28 03:00:00 14.4 10 Oeste 18 Noroeste 0 960.9 0.1 86
2019-07-28 02:00:00 13.8 5 Oeste 8 Oeste 0 960.8 -0.3 87
2019-07-28 01:00:00 13.4 4 Oeste 17 Oeste 0 960.8 0.7 86
2019-07-28 00:00:00 14.6 11 Noroeste 21 Noroeste 0 960.8 1.4 81
2019-07-27 23:00:00 14.8 10 Noroeste 21 Noroeste 0 961.1 2.6 82
2019-07-26 12:00:00 21.2 13 Este 30 Norte 0 960.2 -1.7 83
2019-07-26 11:00:00 20.8 17 Noroeste 22 Noroeste 0 961.4 0.6 88
2019-07-26 10:00:00 19.9 6 Este 15 Este 0 960.9 -1.1 89
2019-07-26 09:00:00 19 4 Norte 22 Oeste 1.4 961.9 0.3 94
2019-07-26 08:00:00 19.5 4 Sudeste 15 Sudeste 0 960.8 -1.4 91
2019-07-26 07:00:00 19.1 0 Calma 21 Norte 0.1 962 0.2 90
2019-07-26 06:00:00 19.5 16 Norte 30 Noroeste 0.5 961.6 -0.2 84
2019-07-26 05:00:00 20.3 16 Noroeste 33 Noroeste 0 962.2 -0.1 80
2019-07-26 04:00:00 20.3 24 Noroeste 35 Norte 0 961.8 -0.2 83
2019-07-26 03:00:00 20.8 19 Norte 30 Norte 0 961.8 -0.4 82
2019-07-26 02:00:00 21.4 18 Noroeste 28 Norte 0 962.3 0.7 81
2019-07-26 01:00:00 21.3 18 Norte 32 Norte 0 962 1.6 83
2019-07-26 00:00:00 21.5 21 Norte 35 Norte 0 962.2 2.8 81